createdAt,value
2018-05-24T04:33:47.319Z,16.9
2018-05-24T04:34:46.054Z,16.9
2018-05-24T04:35:45.867Z,16.91
2018-05-24T04:36:46.133Z,16.82
2018-05-24T04:37:45.896Z,16.9
2018-05-24T04:38:46.319Z,16.88
2018-05-24T04:39:46.494Z,16.9
2018-05-24T04:40:46.477Z,16.92
2018-05-24T04:41:46.595Z,16.97
2018-05-24T04:42:47.012Z,17.02
2018-05-24T04:43:46.768Z,17.02
2018-05-24T04:44:47.473Z,17
2018-05-24T04:45:47.420Z,17.17
2018-05-24T04:46:47.133Z,17.18
2018-05-24T04:47:47.181Z,17.24
2018-05-24T04:48:47.559Z,17.31
2018-05-24T04:49:47.351Z,17.38
2018-05-24T04:50:47.785Z,17.32
2018-05-24T04:51:48.246Z,17.32
2018-05-24T04:52:48.107Z,17.35
2018-05-24T04:53:48.440Z,17.47
2018-05-24T04:54:49.134Z,17.45
2018-05-24T04:55:48.862Z,17.5
2018-05-24T04:56:49.286Z,17.58
2018-05-24T04:57:49.085Z,17.6
2018-05-24T04:58:49.360Z,17.55
2018-05-24T04:59:49.264Z,17.54
2018-05-24T05:00:49.841Z,17.46
2018-05-24T05:01:49.604Z,17.54
2018-05-24T05:02:50.575Z,17.55
2018-05-24T05:03:50.493Z,17.52
2018-05-24T05:04:50.493Z,17.57
2018-05-24T05:05:50.721Z,17.46
2018-05-24T05:06:50.782Z,17.49
2018-05-24T05:07:51.086Z,17.57
2018-05-24T05:08:51.123Z,17.68
2018-05-24T05:09:51.148Z,17.74
2018-05-24T05:10:51.382Z,17.8
2018-05-24T05:11:51.227Z,17.88
2018-05-24T05:12:51.295Z,17.87
2018-05-24T05:13:51.009Z,18.02
2018-05-24T05:14:51.116Z,18.01
2018-05-24T05:15:51.453Z,18.03
2018-05-24T05:16:51.364Z,18.11
2018-05-24T05:17:51.876Z,18.32
2018-05-24T05:18:51.631Z,18.34
2018-05-24T05:19:51.932Z,18.29
2018-05-24T05:20:51.968Z,18.32
2018-05-24T05:21:51.753Z,18.29
2018-05-24T05:22:51.814Z,18.32
2018-05-24T05:23:52.071Z,18.31
2018-05-24T05:24:52.949Z,18.32
2018-05-24T05:25:53.433Z,18.26
2018-05-24T05:26:52.673Z,18.38
2018-05-24T05:27:52.976Z,18.27
2018-05-24T05:28:53.707Z,18.29
2018-05-24T05:29:53.462Z,18.17
2018-05-24T05:30:53.943Z,18.23
2018-05-24T05:31:54.027Z,18.32
2018-05-24T05:32:53.796Z,18.36
2018-05-24T05:33:54.123Z,18.44
2018-05-24T05:34:54.238Z,18.42
2018-05-24T05:35:54.143Z,18.41
2018-05-24T05:36:54.672Z,18.41
2018-05-24T05:37:54.373Z,18.53
2018-05-24T05:38:54.207Z,18.39
2018-05-24T05:39:54.849Z,18.42
2018-05-24T05:40:54.545Z,18.44
2018-05-24T05:41:54.509Z,18.38
2018-05-24T05:42:54.267Z,18.5
2018-05-24T05:43:55.069Z,18.57
2018-05-24T05:44:55.077Z,18.57
2018-05-24T05:45:55.084Z,18.59
2018-05-24T05:46:55.240Z,18.74
2018-05-24T05:47:55.037Z,18.82
2018-05-24T05:48:55.099Z,18.86
2018-05-24T05:49:55.331Z,18.89
2018-05-24T05:50:54.830Z,18.86
2018-05-24T05:51:55.694Z,18.9
2018-05-24T05:52:55.444Z,19
2018-05-24T05:53:55.785Z,18.99
2018-05-24T05:54:55.603Z,18.87
2018-05-24T05:55:56.089Z,18.9
2018-05-24T05:56:56.054Z,18.69
2018-05-24T05:57:55.869Z,18.69
2018-05-24T05:58:56.173Z,18.56
2018-05-24T05:59:55.898Z,18.53
2018-05-24T06:00:56.260Z,18.61
2018-05-24T06:01:56.171Z,18.56
2018-05-24T06:02:56.223Z,18.51
2018-05-24T06:03:55.971Z,18.57
2018-05-24T06:04:56.208Z,18.56
2018-05-24T06:05:57.049Z,18.74
2018-05-24T06:06:56.515Z,18.78
2018-05-24T06:07:56.289Z,18.84
2018-05-24T06:08:56.515Z,18.87
2018-05-24T06:09:56.764Z,18.89
2018-05-24T06:10:56.887Z,18.99
2018-05-24T06:11:56.931Z,19.07
2018-05-24T06:12:56.927Z,19.24
2018-05-24T06:13:57.296Z,19.32
2018-05-24T06:14:56.483Z,19.56
2018-05-24T06:15:57.063Z,19.89
2018-05-24T06:16:57.445Z,20.16
2018-05-24T06:17:57.468Z,20.49
2018-05-24T06:18:57.605Z,21.34
2018-05-24T06:19:57.930Z,22.15
2018-05-24T06:20:57.803Z,22.92
2018-05-24T06:21:57.899Z,23.71
2018-05-24T06:22:59.922Z,24.33
2018-05-24T06:23:59.174Z,24.54
2018-05-24T06:24:59.585Z,24.94
2018-05-24T06:25:59.089Z,25.41
2018-05-24T06:26:58.460Z,25.78
2018-05-24T06:27:58.937Z,26.47
2018-05-24T06:28:59.725Z,26.84
2018-05-24T06:29:59.610Z,26.99
2018-05-24T06:30:59.640Z,27.27
2018-05-24T06:31:59.768Z,27.38
2018-05-24T06:33:00.438Z,27.64
2018-05-24T06:34:00.262Z,27.37
2018-05-24T06:35:00.700Z,27.69
2018-05-24T06:36:00.459Z,27.43
2018-05-24T06:37:00.865Z,27.64
2018-05-24T06:38:01.018Z,27.42
2018-05-24T06:39:00.844Z,27.46
2018-05-24T06:40:01.331Z,27.66
2018-05-24T06:41:01.542Z,27.89
2018-05-24T06:42:01.654Z,28.41
2018-05-24T06:43:01.496Z,28.45
2018-05-24T06:44:01.846Z,28.78
2018-05-24T06:45:02.140Z,29.29
2018-05-24T06:46:01.936Z,29.67
2018-05-24T06:47:02.170Z,29.97
2018-05-24T06:48:02.169Z,30.16
2018-05-24T06:49:01.913Z,30.11
2018-05-24T06:50:02.027Z,29.55
2018-05-24T06:51:01.897Z,29.02
2018-05-24T06:52:02.444Z,28.3
2018-05-24T06:53:02.569Z,27.61
2018-05-24T06:54:02.907Z,27.62
2018-05-24T06:55:03.220Z,28.08
2018-05-24T06:56:03.115Z,28.33
2018-05-24T06:57:02.991Z,28.53
2018-05-24T06:58:02.537Z,28.54
2018-05-24T06:59:03.054Z,28.57
2018-05-24T07:00:05.455Z,27.96
2018-05-24T07:01:02.825Z,27.09
2018-05-24T07:02:02.704Z,26.24
2018-05-24T07:03:03.029Z,25.51
2018-05-24T07:04:03.032Z,25.02
2018-05-24T07:05:03.418Z,24.94
2018-05-24T07:06:03.843Z,24.51
2018-05-24T07:07:03.514Z,24.24
2018-05-24T07:08:03.499Z,24.36
2018-05-24T07:09:03.509Z,24.29
2018-05-24T07:10:03.678Z,24.09
2018-05-24T07:11:04.118Z,23.79
2018-05-24T07:12:04.106Z,23.42
2018-05-24T07:13:03.935Z,23.34
2018-05-24T07:14:04.214Z,23
2018-05-24T07:15:05.017Z,22.85
2018-05-24T07:16:04.397Z,22.75
2018-05-24T07:17:04.770Z,22.96
2018-05-24T07:18:04.904Z,23.45
2018-05-24T07:19:05.218Z,24.14
2018-05-24T07:20:05.679Z,24.89
2018-05-24T07:21:05.582Z,25.6
2018-05-24T07:22:06.121Z,26.49
2018-05-24T07:23:06.627Z,26.87
2018-05-24T07:24:06.245Z,27.09
2018-05-24T07:25:07.044Z,28.23
2018-05-24T07:26:06.003Z,29.28
2018-05-24T07:27:06.486Z,30.22
2018-05-24T07:28:06.159Z,30.88
2018-05-24T07:29:07.061Z,30.86
2018-05-24T07:30:06.984Z,30.75
2018-05-24T07:31:06.538Z,30.79
2018-05-24T07:32:06.626Z,31.19
2018-05-24T07:33:06.695Z,31.44
2018-05-24T07:34:06.330Z,30.73
2018-05-24T07:35:06.744Z,30.67
2018-05-24T07:36:06.691Z,30.73
2018-05-24T07:37:06.751Z,30.73
2018-05-24T07:38:06.910Z,30.71
2018-05-24T07:39:06.686Z,31
2018-05-24T07:40:07.672Z,31.34
2018-05-24T07:41:07.340Z,31.18
2018-05-24T07:42:07.090Z,31.62
2018-05-24T07:43:07.544Z,31.53
2018-05-24T07:44:07.872Z,31.72
2018-05-24T07:45:08.226Z,31.8
2018-05-24T07:46:08.118Z,31.77
2018-05-24T07:47:08.199Z,31.49
2018-05-24T07:48:08.612Z,31.25
2018-05-24T07:49:09.279Z,31.34
2018-05-24T07:50:09.358Z,31.87
2018-05-24T07:51:09.542Z,31.95
2018-05-24T07:52:09.523Z,32.42
2018-05-24T07:53:09.745Z,32.93
2018-05-24T07:54:10.544Z,33.4
2018-05-24T07:55:10.718Z,34.1
2018-05-24T07:56:10.385Z,34.39
2018-05-24T07:57:10.201Z,33.65
2018-05-24T07:58:10.496Z,33.41
2018-05-24T07:59:10.238Z,33.36
2018-05-24T08:00:14.199Z,33.29
2018-05-24T08:01:10.779Z,32.8
2018-05-24T08:02:11.095Z,32.25
2018-05-24T08:03:11.143Z,31.74
2018-05-24T08:04:11.034Z,31.65
2018-05-24T08:05:11.434Z,31.59
2018-05-24T08:06:11.690Z,31.72
2018-05-24T08:07:11.733Z,31.74
2018-05-24T08:08:11.453Z,31.9
2018-05-24T08:09:11.534Z,31.95
2018-05-24T08:10:12.487Z,32.16
2018-05-24T08:11:11.650Z,31.95
2018-05-24T08:12:12.173Z,31.95
2018-05-24T08:13:12.138Z,32.28
2018-05-24T08:14:12.097Z,33.24
2018-05-24T08:15:12.533Z,33.65
2018-05-24T08:16:12.297Z,34.1
2018-05-24T08:17:12.642Z,34.3
2018-05-24T08:18:12.405Z,34.86
2018-05-24T08:19:12.565Z,35.16
2018-05-24T08:20:13.212Z,34.94
2018-05-24T08:21:13.354Z,34.45
2018-05-24T08:22:13.389Z,34.21
2018-05-24T08:23:13.257Z,34.18
2018-05-24T08:24:13.031Z,34.58
2018-05-24T08:25:13.680Z,35.3
2018-05-24T08:26:13.385Z,35.71
2018-05-24T08:27:13.426Z,35.65
2018-05-24T08:28:13.396Z,35.18
2018-05-24T08:29:13.689Z,34.64
2018-05-24T08:30:13.510Z,34.55
2018-05-24T08:31:13.581Z,34.24
2018-05-24T08:32:13.841Z,34.43
2018-05-24T08:33:13.903Z,34.55
2018-05-24T08:34:13.920Z,34.71
2018-05-24T08:35:14.098Z,34.77
2018-05-24T08:36:14.008Z,34.86
2018-05-24T08:37:14.084Z,34.94
2018-05-24T08:38:13.941Z,34.78
2018-05-24T08:39:14.418Z,34.81
2018-05-24T08:40:14.145Z,34.54
2018-05-24T08:41:14.348Z,34.89
2018-05-24T08:42:15.048Z,35.2
2018-05-24T08:43:15.266Z,35.05
2018-05-24T08:44:15.294Z,35.18
2018-05-24T08:45:15.768Z,34.71
2018-05-24T08:46:15.531Z,34.14
2018-05-24T08:47:16.232Z,33.66
2018-05-24T08:48:15.884Z,33.29
2018-05-24T08:49:15.766Z,33.03
2018-05-24T08:50:15.725Z,32.72
2018-05-24T08:51:16.824Z,32.25
2018-05-24T08:52:16.807Z,32
2018-05-24T08:53:16.702Z,31.59
2018-05-24T08:54:16.638Z,30.88
2018-05-24T08:55:17.446Z,30.14
2018-05-24T08:56:17.168Z,30.04
2018-05-24T08:57:17.473Z,29.75
2018-05-24T08:58:18.174Z,29.63
2018-05-24T08:59:17.522Z,29.77
2018-05-24T09:00:27.252Z,29.36
2018-05-24T09:01:27.945Z,29.26
2018-05-24T09:02:28.288Z,29.29
2018-05-24T09:03:27.774Z,29.73
2018-05-24T09:04:27.916Z,30.06
2018-05-24T09:05:27.979Z,30.14
2018-05-24T09:06:28.149Z,30.1
2018-05-24T09:07:28.626Z,30.7
2018-05-24T09:08:28.128Z,31.31
2018-05-24T09:09:28.714Z,31.74
2018-05-24T09:10:28.489Z,31.9
2018-05-24T09:11:29.223Z,32.24
2018-05-24T09:12:29.549Z,33.01
2018-05-24T09:13:29.034Z,33.2
2018-05-24T09:14:29.336Z,33.74
2018-05-24T09:15:29.365Z,34.27
2018-05-24T09:16:29.824Z,33.83
2018-05-24T09:17:29.781Z,33.09
2018-05-24T09:18:29.483Z,32.94
2018-05-24T09:19:30.012Z,32.56
2018-05-24T09:20:30.039Z,32.27
2018-05-24T09:21:30.202Z,32.24
2018-05-24T09:22:30.595Z,32.89
2018-05-24T09:23:30.757Z,32.61
2018-05-24T09:24:31.172Z,32.87
2018-05-24T09:25:31.674Z,33.69
2018-05-24T09:26:32.351Z,34.33
2018-05-24T09:27:32.128Z,34.84
2018-05-24T09:28:32.185Z,35.08
2018-05-24T09:29:32.530Z,34.17
2018-05-24T09:30:32.568Z,33.75
2018-05-24T09:31:32.639Z,33.56
2018-05-24T09:32:32.517Z,34.17
2018-05-24T09:33:33.039Z,34.71
2018-05-24T09:34:32.662Z,34.86
2018-05-24T09:35:32.771Z,35.61
2018-05-24T09:36:32.984Z,36.18
2018-05-24T09:37:33.513Z,36.25
2018-05-24T09:38:33.463Z,36.18
2018-05-24T09:39:33.335Z,36.25
2018-05-24T09:40:33.673Z,36.17
2018-05-24T09:41:33.681Z,35.87
2018-05-24T09:42:33.461Z,35.96
2018-05-24T09:43:33.759Z,34.87
2018-05-24T09:44:33.746Z,34.49
2018-05-24T09:45:33.625Z,34.21
2018-05-24T09:46:33.805Z,34.18
2018-05-24T09:47:34.076Z,34.52
2018-05-24T09:48:34.211Z,34.86
2018-05-24T09:49:34.699Z,35.11
2018-05-24T09:50:34.404Z,36.12
2018-05-24T09:51:34.813Z,35.62
2018-05-24T09:52:34.547Z,35.11
2018-05-24T09:53:34.319Z,35.06
2018-05-24T09:54:34.301Z,35.01
2018-05-24T09:55:34.340Z,34.93
2018-05-24T09:56:34.899Z,34.46
2018-05-24T09:57:34.858Z,34
2018-05-24T09:58:35.326Z,34.24
2018-05-24T09:59:34.797Z,33.96
2018-05-24T10:00:35.104Z,33.73
2018-05-24T10:01:35.556Z,34.12
2018-05-24T10:02:35.352Z,34.46
2018-05-24T10:03:35.688Z,34.24
2018-05-24T10:04:36.263Z,34.41
2018-05-24T10:05:36.183Z,34.81
2018-05-24T10:06:35.947Z,34.71
2018-05-24T10:07:36.071Z,34.97
2018-05-24T10:08:36.367Z,35.16
2018-05-24T10:09:36.462Z,34.3
2018-05-24T10:10:37.846Z,33.96
2018-05-24T10:11:36.960Z,33.89
2018-05-24T10:12:37.021Z,33.62
2018-05-24T10:13:37.494Z,34.02
2018-05-24T10:14:36.826Z,33.48
2018-05-24T10:15:37.049Z,33.12
2018-05-24T10:16:38.024Z,33.39
2018-05-24T10:17:37.799Z,33.74
2018-05-24T10:18:37.912Z,33.8
2018-05-24T10:19:38.335Z,33.93
2018-05-24T10:20:38.504Z,34.55
2018-05-24T10:21:38.759Z,35.39
2018-05-24T10:22:39.028Z,35.87
2018-05-24T10:23:39.624Z,36.08
2018-05-24T10:24:39.433Z,35.3
2018-05-24T10:25:39.953Z,35.21
2018-05-24T10:26:40.471Z,35.42
2018-05-24T10:27:39.960Z,35.79
2018-05-24T10:28:40.028Z,35.11
2018-05-24T10:29:40.214Z,34.71
2018-05-24T10:30:40.250Z,34.33
2018-05-24T10:31:40.503Z,34.3
2018-05-24T10:32:40.496Z,34.24
2018-05-24T10:33:40.389Z,34.61
2018-05-24T10:34:40.171Z,34.55
2018-05-24T10:35:40.618Z,35.3
2018-05-24T10:36:40.130Z,35.35
2018-05-24T10:37:41.997Z,34.94
2018-05-24T10:38:41.200Z,34.77
2018-05-24T10:39:41.414Z,34.39
2018-05-24T10:40:42.014Z,34.72
2018-05-24T10:41:41.256Z,35.34
2018-05-24T10:42:41.104Z,34.77
2018-05-24T10:43:41.571Z,35.28
2018-05-24T10:44:41.375Z,34.15
2018-05-24T10:45:41.662Z,33.58
2018-05-24T10:46:41.576Z,33.29
2018-05-24T10:47:41.604Z,33.11
2018-05-24T10:48:42.862Z,33.03
2018-05-24T10:49:42.292Z,33.41
2018-05-24T10:50:43.052Z,33.34
2018-05-24T10:51:42.897Z,33.52
2018-05-24T10:52:42.497Z,33.02
2018-05-24T10:53:42.547Z,33.23
2018-05-24T10:54:42.301Z,34.03
2018-05-24T10:55:42.792Z,33.93
2018-05-24T10:56:42.606Z,33.81
2018-05-24T10:57:42.750Z,33.93
2018-05-24T10:58:42.892Z,33.23
2018-05-24T10:59:42.736Z,32.93
2018-05-24T11:00:42.764Z,32.84
2018-05-24T11:01:43.307Z,33.39
2018-05-24T11:02:43.979Z,33.63
2018-05-24T11:03:43.693Z,33.61
2018-05-24T11:04:43.911Z,33.77
2018-05-24T11:05:44.183Z,32.86
2018-05-24T11:06:44.849Z,32.54
2018-05-24T11:07:44.942Z,32.84
2018-05-24T11:08:45.094Z,33.24
2018-05-24T11:09:45.672Z,33.39
2018-05-24T11:10:45.648Z,32.99
2018-05-24T11:11:46.595Z,33.21
2018-05-24T11:12:46.271Z,32.76
2018-05-24T11:13:46.846Z,32.52
2018-05-24T11:14:46.410Z,32.34
2018-05-24T11:15:46.826Z,32.49
2018-05-24T11:16:47.121Z,32.69
2018-05-24T11:17:47.240Z,32.9
2018-05-24T11:18:47.339Z,33.31
2018-05-24T11:19:47.403Z,33.4
2018-05-24T11:20:47.486Z,33.83
2018-05-24T11:21:47.889Z,33.53
2018-05-24T11:22:48.263Z,33.34
2018-05-24T11:23:47.999Z,33.01
2018-05-24T11:24:48.640Z,32.83
2018-05-24T11:25:48.499Z,32.86
2018-05-24T11:26:48.705Z,32.9
2018-05-24T11:27:49.393Z,32.83
2018-05-24T11:28:49.091Z,33.08
2018-05-24T11:29:48.926Z,32.69
2018-05-24T11:30:49.623Z,31.5
2018-05-24T11:31:50.083Z,30.4
2018-05-24T11:32:49.573Z,29.55
2018-05-24T11:33:50.256Z,28.76
2018-05-24T11:34:50.269Z,28.35
2018-05-24T11:35:50.099Z,27.89
2018-05-24T11:36:50.696Z,27.46
2018-05-24T11:37:50.157Z,26.97
2018-05-24T11:38:50.434Z,26.71
2018-05-24T11:39:50.220Z,26.71
2018-05-24T11:40:51.019Z,26.56
2018-05-24T11:41:50.553Z,26.37
2018-05-24T11:42:51.023Z,26.06
2018-05-24T11:43:51.317Z,25.88
2018-05-24T11:44:51.282Z,25.96
2018-05-24T11:45:50.835Z,25.99
2018-05-24T11:46:51.661Z,25.93
2018-05-24T11:47:51.206Z,25.84
2018-05-24T11:48:51.960Z,25.67
2018-05-24T11:49:52.712Z,25.74
2018-05-24T11:50:52.242Z,25.7
2018-05-24T11:51:52.645Z,25.64
2018-05-24T11:52:52.457Z,25.78
2018-05-24T11:53:53.016Z,25.7
2018-05-24T11:54:52.939Z,25.64
2018-05-24T11:55:53.057Z,25.66
2018-05-24T11:56:53.196Z,25.63
2018-05-24T11:57:53.977Z,25.64
2018-05-24T11:58:53.573Z,25.71
2018-05-24T11:59:54.195Z,25.62
2018-05-24T12:00:53.710Z,25.57
2018-05-24T12:01:54.521Z,25.47
2018-05-24T12:02:54.270Z,25.38
2018-05-24T12:03:54.666Z,25.27
2018-05-24T12:04:54.743Z,25.2
2018-05-24T12:05:54.605Z,25.3
2018-05-24T12:06:55.055Z,25.32
2018-05-24T12:07:54.799Z,25.24
2018-05-24T12:08:55.408Z,25.23
2018-05-24T12:09:55.649Z,25.24
2018-05-24T12:10:55.750Z,25.29
2018-05-24T12:11:56.928Z,25.26
2018-05-24T12:12:57.039Z,25.32
2018-05-24T12:13:56.531Z,25.44
2018-05-24T12:14:56.966Z,25.34
2018-05-24T12:15:56.760Z,25.44
2018-05-24T12:16:56.826Z,25.48
2018-05-24T12:17:56.556Z,25.33
2018-05-24T12:18:56.977Z,25.32
2018-05-24T12:19:56.739Z,25.34
2018-05-24T12:20:57.285Z,25.33
2018-05-24T12:21:57.309Z,25.41
2018-05-24T12:22:57.734Z,25.37
2018-05-24T12:23:57.807Z,25.33
2018-05-24T12:24:57.845Z,25.38
2018-05-24T12:25:58.282Z,25.38
2018-05-24T12:26:58.362Z,25.56
2018-05-24T12:27:58.384Z,25.67
2018-05-24T12:28:58.230Z,25.66
2018-05-24T12:29:58.124Z,25.75
2018-05-24T12:30:58.830Z,25.78
2018-05-24T12:31:58.915Z,25.78
2018-05-24T12:32:59.746Z,25.81
2018-05-24T12:33:59.526Z,25.71
2018-05-24T12:34:58.903Z,25.62
2018-05-24T12:35:58.787Z,25.63
2018-05-24T12:36:58.788Z,25.63
2018-05-24T12:37:59.662Z,25.74
2018-05-24T12:38:59.887Z,25.69
2018-05-24T12:40:00.492Z,25.79
2018-05-24T12:41:00.318Z,25.81
2018-05-24T12:42:00.974Z,25.64
2018-05-24T12:43:00.550Z,25.6
2018-05-24T12:44:00.767Z,25.54
2018-05-24T12:45:01.048Z,25.54
2018-05-24T12:46:00.752Z,25.59
2018-05-24T12:47:00.364Z,25.66
2018-05-24T12:48:00.462Z,25.54
2018-05-24T12:49:01.299Z,25.56
2018-05-24T12:50:01.029Z,25.54
2018-05-24T12:51:01.238Z,25.48
2018-05-24T12:52:01.687Z,25.51
2018-05-24T12:53:01.892Z,25.51
2018-05-24T12:54:01.642Z,25.49
2018-05-24T12:55:02.148Z,25.41
2018-05-24T12:56:01.976Z,25.47
2018-05-24T12:57:02.530Z,25.49
2018-05-24T12:58:02.142Z,25.45
2018-05-24T12:59:02.920Z,25.51
2018-05-24T13:00:16.598Z,25.56
2018-05-24T13:01:02.494Z,25.51
2018-05-24T13:02:02.112Z,25.52
2018-05-24T13:03:02.326Z,25.42
2018-05-24T13:04:02.900Z,25.45
2018-05-24T13:05:03.012Z,25.27
2018-05-24T13:06:02.742Z,25.34
2018-05-24T13:07:02.699Z,25.34
2018-05-24T13:08:03.072Z,25.33
2018-05-24T13:09:03.133Z,25.33
2018-05-24T13:10:03.278Z,25.38
2018-05-24T13:11:03.516Z,25.42
2018-05-24T13:12:04.140Z,25.52
2018-05-24T13:13:03.178Z,25.48
2018-05-24T13:14:03.415Z,25.51
2018-05-24T13:15:03.529Z,25.42
2018-05-24T13:16:03.765Z,25.39
2018-05-24T13:17:03.696Z,25.38
2018-05-24T13:18:04.074Z,25.42
2018-05-24T13:19:04.250Z,25.52
2018-05-24T13:20:05.108Z,25.49
2018-05-24T13:21:06.064Z,25.42
2018-05-24T13:22:05.004Z,25.47
2018-05-24T13:23:04.867Z,25.41
2018-05-24T13:24:05.198Z,25.38
2018-05-24T13:25:04.830Z,25.32
2018-05-24T13:26:05.559Z,25.27
2018-05-24T13:27:05.030Z,25.32
2018-05-24T13:28:05.005Z,25.29
2018-05-24T13:29:05.710Z,25.33
2018-05-24T13:30:05.729Z,25.34
2018-05-24T13:31:05.586Z,25.45
2018-05-24T13:32:05.872Z,25.42
2018-05-24T13:33:06.154Z,25.38
2018-05-24T13:34:05.894Z,25.38
2018-05-24T13:35:06.081Z,25.41
2018-05-24T13:36:05.875Z,25.41
2018-05-24T13:37:06.061Z,25.37
2018-05-24T13:38:05.952Z,25.38
2018-05-24T13:39:06.704Z,25.38
2018-05-24T13:40:06.031Z,25.3
2018-05-24T13:41:06.690Z,25.23
2018-05-24T13:42:06.756Z,25.27
2018-05-24T13:43:06.897Z,25.2
2018-05-24T13:44:06.690Z,25.23
2018-05-24T13:45:07.529Z,25.08
2018-05-24T13:46:07.807Z,25.11
2018-05-24T13:47:07.104Z,25.07
2018-05-24T13:48:07.402Z,25.05
2018-05-24T13:49:07.202Z,25.14
2018-05-24T13:50:07.585Z,25.07
2018-05-24T13:51:07.194Z,25.15
2018-05-24T13:52:07.866Z,25.27
2018-05-24T13:53:07.547Z,25.24
2018-05-24T13:54:07.628Z,25.33
2018-05-24T13:55:08.534Z,25.32
2018-05-24T13:56:07.715Z,25.26
2018-05-24T13:57:07.950Z,25.29
2018-05-24T13:58:07.681Z,25.33
2018-05-24T13:59:07.784Z,25.39
2018-05-24T14:00:14.107Z,25.39
2018-05-24T14:01:07.891Z,25.42
2018-05-24T14:02:08.278Z,25.42
2018-05-24T14:03:07.676Z,25.41
2018-05-24T14:04:07.537Z,25.37
2018-05-24T14:05:08.352Z,25.48
2018-05-24T14:06:08.566Z,25.37
2018-05-24T14:07:08.821Z,25.49
2018-05-24T14:08:08.451Z,25.41
2018-05-24T14:09:08.437Z,25.44
2018-05-24T14:10:08.751Z,25.39
2018-05-24T14:11:08.295Z,25.38
2018-05-24T14:12:08.804Z,25.34
2018-05-24T14:13:09.053Z,25.41
2018-05-24T14:14:08.736Z,25.52
2018-05-24T14:15:09.518Z,25.56
2018-05-24T14:16:09.473Z,25.52
2018-05-24T14:17:09.362Z,25.62
2018-05-24T14:18:09.827Z,25.6
2018-05-24T14:19:10.499Z,25.56
2018-05-24T14:20:10.342Z,25.52
2018-05-24T14:21:11.160Z,25.52
2018-05-24T14:22:10.604Z,25.56
2018-05-24T14:23:10.888Z,25.59
2018-05-24T14:24:10.958Z,25.59
2018-05-24T14:25:10.716Z,25.59
2018-05-24T14:26:11.191Z,25.6
2018-05-24T14:27:11.037Z,25.69
2018-05-24T14:28:11.164Z,25.64
2018-05-24T14:29:11.487Z,25.63
2018-05-24T14:30:11.734Z,25.62
2018-05-24T14:31:11.986Z,25.64
2018-05-24T14:32:12.038Z,25.64
2018-05-24T14:33:12.338Z,25.59
2018-05-24T14:34:12.101Z,25.52
2018-05-24T14:35:12.601Z,25.49
2018-05-24T14:36:12.530Z,25.51
2018-05-24T14:37:13.099Z,25.56
2018-05-24T14:38:13.572Z,25.49
2018-05-24T14:39:13.349Z,25.49
2018-05-24T14:40:13.550Z,25.49
2018-05-24T14:41:13.847Z,25.45
2018-05-24T14:42:14.740Z,25.41
2018-05-24T14:43:13.836Z,25.47
2018-05-24T14:44:14.583Z,25.52
2018-05-24T14:45:14.531Z,25.54
2018-05-24T14:46:14.822Z,25.48
2018-05-24T14:47:14.853Z,25.49
2018-05-24T14:48:14.738Z,25.54
2018-05-24T14:49:14.663Z,25.48
2018-05-24T14:50:14.889Z,25.51
2018-05-24T14:51:15.201Z,25.48
2018-05-24T14:52:15.135Z,25.52
2018-05-24T14:53:15.474Z,25.52
2018-05-24T14:54:15.514Z,25.51
2018-05-24T14:55:15.576Z,25.59
2018-05-24T14:56:15.305Z,25.57
2018-05-24T14:57:16.116Z,25.6
2018-05-24T14:58:15.678Z,25.74
2018-05-24T14:59:16.106Z,25.66
2018-05-24T15:00:16.583Z,25.66
2018-05-24T15:01:16.598Z,25.59
2018-05-24T15:02:16.551Z,25.63
2018-05-24T15:03:16.863Z,25.56
2018-05-24T15:04:16.897Z,25.52
2018-05-24T15:05:16.935Z,25.49
2018-05-24T15:06:17.404Z,25.45
2018-05-24T15:07:17.701Z,25.54
2018-05-24T15:08:17.480Z,25.54
2018-05-24T15:09:17.884Z,25.42
2018-05-24T15:10:17.549Z,25.52
2018-05-24T15:11:17.921Z,25.51
2018-05-24T15:12:18.658Z,25.64
2018-05-24T15:13:18.950Z,25.6
2018-05-24T15:14:19.076Z,25.64
2018-05-24T15:15:19.847Z,25.64
2018-05-24T15:16:18.546Z,25.64
2018-05-24T15:17:18.602Z,25.6
2018-05-24T15:18:18.933Z,25.59
2018-05-24T15:19:19.244Z,25.56
2018-05-24T15:20:19.063Z,25.67
2018-05-24T15:21:19.952Z,25.62
2018-05-24T15:22:19.750Z,25.7
2018-05-24T15:23:19.482Z,25.67
2018-05-24T15:24:20.605Z,25.54
2018-05-24T15:25:20.655Z,25.6
2018-05-24T15:26:20.368Z,25.56
2018-05-24T15:27:20.398Z,25.67
2018-05-24T15:28:20.693Z,25.67
2018-05-24T15:29:20.684Z,25.62
2018-05-24T15:30:21.204Z,25.52
2018-05-24T15:31:20.980Z,25.52
2018-05-24T15:32:22.215Z,25.51
2018-05-24T15:33:21.132Z,25.49
2018-05-24T15:34:21.368Z,25.56
2018-05-24T15:35:21.443Z,25.57
2018-05-24T15:36:21.430Z,25.49
2018-05-24T15:37:21.922Z,25.51
2018-05-24T15:38:22.114Z,25.45
2018-05-24T15:39:22.535Z,25.49
2018-05-24T15:40:22.152Z,25.45
2018-05-24T15:41:22.721Z,25.45
2018-05-24T15:42:22.491Z,25.42
2018-05-24T15:43:22.621Z,25.42
2018-05-24T15:44:22.827Z,25.44
2018-05-24T15:45:24.175Z,25.42
2018-05-24T15:46:23.399Z,25.44
2018-05-24T15:47:24.049Z,25.42
2018-05-24T15:48:24.245Z,25.45
2018-05-24T15:49:24.514Z,25.41
2018-05-24T15:50:23.682Z,25.34
2018-05-24T15:51:24.381Z,25.45
2018-05-24T15:52:23.618Z,25.37
2018-05-24T15:53:24.028Z,25.45
2018-05-24T15:54:23.988Z,25.48
2018-05-24T15:55:24.248Z,25.41
2018-05-24T15:56:24.070Z,25.44
2018-05-24T15:57:24.026Z,25.41
2018-05-24T15:58:24.046Z,25.41
2018-05-24T15:59:24.822Z,25.39
2018-05-24T16:00:28.290Z,25.39
2018-05-24T16:01:28.209Z,25.41
2018-05-24T16:02:28.487Z,25.27
2018-05-24T16:03:28.656Z,25.24
2018-05-24T16:04:28.142Z,25.3
2018-05-24T16:05:28.295Z,25.2
2018-05-24T16:06:28.562Z,25.19
2018-05-24T16:07:28.660Z,25.07
2018-05-24T16:08:28.673Z,25.07
2018-05-24T16:09:28.836Z,25.09
2018-05-24T16:10:28.445Z,25.02
2018-05-24T16:11:28.955Z,25.01
2018-05-24T16:12:29.230Z,25.04
2018-05-24T16:13:28.677Z,25.04
2018-05-24T16:14:29.217Z,25.01
2018-05-24T16:15:29.106Z,25.02
2018-05-24T16:16:28.957Z,24.96
2018-05-24T16:17:28.697Z,25.07
2018-05-24T16:18:29.504Z,25.01
2018-05-24T16:19:29.494Z,25.05
2018-05-24T16:20:29.530Z,25.02
2018-05-24T16:21:29.567Z,25.01
2018-05-24T16:22:29.397Z,24.92
2018-05-24T16:23:30.304Z,24.87
2018-05-24T16:24:30.615Z,24.93
2018-05-24T16:25:31.012Z,24.87
2018-05-24T16:26:30.271Z,24.92
2018-05-24T16:27:30.498Z,24.87
2018-05-24T16:28:30.468Z,24.97
2018-05-24T16:29:31.192Z,24.9
2018-05-24T16:30:31.644Z,24.92
2018-05-24T16:31:31.513Z,24.83
2018-05-24T16:32:31.707Z,24.86
2018-05-24T16:33:30.421Z,24.78
2018-05-24T16:34:30.799Z,24.86
2018-05-24T16:35:31.625Z,24.75
2018-05-24T16:36:30.690Z,24.7
2018-05-24T16:37:31.497Z,24.71
2018-05-24T16:38:31.514Z,24.71
2018-05-24T16:39:31.377Z,24.7
2018-05-24T16:40:31.366Z,24.7
2018-05-24T16:41:31.563Z,24.71
2018-05-24T16:42:31.106Z,24.67
2018-05-24T16:43:31.352Z,24.67
2018-05-24T16:44:32.250Z,24.66
2018-05-24T16:45:31.995Z,24.61
2018-05-24T16:46:32.290Z,24.66
2018-05-24T16:47:32.112Z,24.61
2018-05-24T16:48:31.865Z,24.64
2018-05-24T16:49:32.193Z,24.66
2018-05-24T16:50:32.216Z,24.58
2018-05-24T16:51:32.385Z,24.56
2018-05-24T16:52:31.983Z,24.56
2018-05-24T16:53:32.389Z,24.56
2018-05-24T16:54:32.703Z,24.51
2018-05-24T16:55:32.329Z,24.56
2018-05-24T16:56:32.441Z,24.52
2018-05-24T16:57:32.266Z,24.46
2018-05-24T16:58:32.364Z,24.54
2018-05-24T16:59:32.900Z,24.55
2018-05-24T17:00:32.911Z,24.49
2018-05-24T17:01:33.204Z,24.56
2018-05-24T17:02:33.718Z,24.48
2018-05-24T17:03:33.486Z,24.45
2018-05-24T17:04:33.717Z,24.49
2018-05-24T17:05:34.484Z,24.51
2018-05-24T17:06:33.993Z,24.52
2018-05-24T17:07:34.082Z,24.49
2018-05-24T17:08:33.748Z,24.52
2018-05-24T17:09:33.890Z,24.55
2018-05-24T17:10:34.186Z,24.46
2018-05-24T17:11:34.230Z,24.48
2018-05-24T17:12:34.547Z,24.42
2018-05-24T17:13:34.240Z,24.48
2018-05-24T17:14:34.006Z,24.42
2018-05-24T17:15:35.485Z,24.42
2018-05-24T17:16:35.043Z,24.4
2018-05-24T17:17:34.503Z,24.46
2018-05-24T17:18:35.595Z,24.44
2018-05-24T17:19:35.705Z,24.51
2018-05-24T17:20:35.625Z,24.39
2018-05-24T17:21:35.824Z,24.4
2018-05-24T17:22:34.937Z,24.44
2018-05-24T17:23:35.005Z,24.37
2018-05-24T17:24:35.546Z,24.42
2018-05-24T17:25:35.545Z,24.34
2018-05-24T17:26:36.827Z,24.37
2018-05-24T17:27:36.564Z,24.37
2018-05-24T17:28:36.425Z,24.32
2018-05-24T17:29:36.121Z,24.29
2018-05-24T17:30:36.117Z,24.34